sensor_id;sensor_type;location;lat;lon;timestamp;pressure;altitude;pressure_sealevel;temperature;humidity
25722;BME280;13578;53.450;15.496;2024-01-30T00:00:36;101117.19;;;0.92;100.00
25722;BME280;13578;53.450;15.496;2024-01-30T00:03:36;101122.47;;;0.97;100.00
25722;BME280;13578;53.450;15.496;2024-01-30T00:06:37;101123.41;;;0.96;100.00
25722;BME280;13578;53.450;15.496;2024-01-30T00:09:38;101127.13;;;0.92;100.00
25722;BME280;13578;53.450;15.496;2024-01-30T00:12:40;101131.75;;;0.88;100.00
25722;BME280;13578;53.450;15.496;2024-01-30T00:15:40;101137.19;;;0.87;100.00
25722;BME280;13578;53.450;15.496;2024-01-30T00:18:41;101134.44;;;0.88;100.00
25722;BME280;13578;53.450;15.496;2024-01-30T00:21:41;101125.63;;;0.82;100.00
25722;BME280;13578;53.450;15.496;2024-01-30T00:24:42;101135.13;;;0.97;100.00
25722;BME280;13578;53.450;15.496;2024-01-30T00:27:43;101135.31;;;0.90;100.00
25722;BME280;13578;53.450;15.496;2024-01-30T00:30:43;101132.47;;;0.95;100.00
25722;BME280;13578;53.450;15.496;2024-01-30T00:33:44;101121.97;;;0.83;100.00
25722;BME280;13578;53.450;15.496;2024-01-30T00:36:44;101134.69;;;0.81;100.00
25722;BME280;13578;53.450;15.496;2024-01-30T00:39:45;101128.19;;;0.86;100.00
25722;BME280;13578;53.450;15.496;2024-01-30T00:42:46;101134.31;;;0.93;100.00
25722;BME280;13578;53.450;15.496;2024-01-30T00:45:46;101120.94;;;0.88;100.00
25722;BME280;13578;53.450;15.496;2024-01-30T00:48:47;101117.50;;;0.82;100.00
25722;BME280;13578;53.450;15.496;2024-01-30T00:51:47;101130.63;;;0.95;100.00
25722;BME280;13578;53.450;15.496;2024-01-30T00:54:48;101122.88;;;0.83;100.00
25722;BME280;13578;53.450;15.496;2024-01-30T00:57:49;101118.41;;;0.82;100.00
25722;BME280;13578;53.450;15.496;2024-01-30T01:00:49;101117.38;;;0.86;100.00
25722;BME280;13578;53.450;15.496;2024-01-30T01:03:50;101125.34;;;0.91;100.00
25722;BME280;13578;53.450;15.496;2024-01-30T01:06:50;101118.94;;;0.95;100.00
25722;BME280;13578;53.450;15.496;2024-01-30T01:09:51;101117.25;;;0.91;100.00
25722;BME280;13578;53.450;15.496;2024-01-30T01:12:51;101111.09;;;0.86;100.00
25722;BME280;13578;53.450;15.496;2024-01-30T01:15:52;101120.06;;;0.88;100.00
25722;BME280;13578;53.450;15.496;2024-01-30T01:18:53;101119.25;;;0.84;100.00
25722;BME280;13578;53.450;15.496;2024-01-30T01:21:53;101116.88;;;0.73;100.00
25722;BME280;13578;53.450;15.496;2024-01-30T01:24:54;101113.31;;;0.71;100.00
25722;BME280;13578;53.450;15.496;2024-01-30T01:27:54;101111.38;;;0.43;100.00
25722;BME280;13578;53.450;15.496;2024-01-30T01:30:55;101111.50;;;0.37;100.00
25722;BME280;13578;53.450;15.496;2024-01-30T01:33:59;101105.16;;;0.40;100.00
25722;BME280;13578;53.450;15.496;2024-01-30T01:36:59;101104.22;;;0.41;100.00
25722;BME280;13578;53.450;15.496;2024-01-30T01:40:00;101108.97;;;0.31;100.00
25722;BME280;13578;53.450;15.496;2024-01-30T01:43:03;101113.00;;;0.16;100.00
25722;BME280;13578;53.450;15.496;2024-01-30T01:46:06;101105.75;;;0.17;100.00
25722;BME280;13578;53.450;15.496;2024-01-30T01:49:07;101100.47;;;0.13;100.00
25722;BME280;13578;53.450;15.496;2024-01-30T01:52:09;101101.72;;;0.00;100.00
25722;BME280;13578;53.450;15.496;2024-01-30T01:55:10;101098.25;;;-0.07;100.00
25722;BME280;13578;53.450;15.496;2024-01-30T01:58:12;101093.75;;;-0.06;100.00
25722;BME280;13578;53.450;15.496;2024-01-30T02:01:13;101093.84;;;-0.09;100.00
25722;BME280;13578;53.450;15.496;2024-01-30T02:04:15;101090.28;;;-0.11;100.00
25722;BME280;13578;53.450;15.496;2024-01-30T02:07:17;101100.22;;;-0.13;100.00
25722;BME280;13578;53.450;15.496;2024-01-30T02:10:17;101096.72;;;-0.17;100.00
25722;BME280;13578;53.450;15.496;2024-01-30T02:13:18;101091.34;;;-0.19;100.00
25722;BME280;13578;53.450;15.496;2024-01-30T02:16:18;101094.00;;;-0.17;100.00
25722;BME280;13578;53.450;15.496;2024-01-30T02:19:19;101096.75;;;-0.19;100.00
25722;BME280;13578;53.450;15.496;2024-01-30T02:22:20;101092.28;;;-0.20;100.00
25722;BME280;13578;53.450;15.496;2024-01-30T02:25:33;101092.22;;;-0.17;100.00
25722;BME280;13578;53.450;15.496;2024-01-30T02:28:34;101085.69;;;-0.08;100.00
25722;BME280;13578;53.450;15.496;2024-01-30T02:31:34;101095.63;;;-0.10;100.00
25722;BME280;13578;53.450;15.496;2024-01-30T02:34:35;101094.31;;;0.07;100.00
25722;BME280;13578;53.450;15.496;2024-01-30T02:37:35;101095.13;;;0.10;100.00
25722;BME280;13578;53.450;15.496;2024-01-30T02:40:36;101093.13;;;0.19;100.00
25722;BME280;13578;53.450;15.496;2024-01-30T02:43:36;101096.84;;;0.14;100.00
25722;BME280;13578;53.450;15.496;2024-01-30T02:46:37;101092.44;;;0.10;100.00
25722;BME280;13578;53.450;15.496;2024-01-30T02:49:38;101091.56;;;0.08;100.00
25722;BME280;13578;53.450;15.496;2024-01-30T02:52:38;101088.88;;;0.08;100.00
25722;BME280;13578;53.450;15.496;2024-01-30T02:55:39;101097.59;;;0.20;100.00
25722;BME280;13578;53.450;15.496;2024-01-30T02:58:40;101087.88;;;0.12;100.00
25722;BME280;13578;53.450;15.496;2024-01-30T03:01:44;101090.59;;;0.12;100.00
25722;BME280;13578;53.450;15.496;2024-01-30T03:04:45;101089.78;;;0.09;100.00
25722;BME280;13578;53.450;15.496;2024-01-30T03:07:45;101092.44;;;0.10;100.00
25722;BME280;13578;53.450;15.496;2024-01-30T03:10:46;101097.66;;;0.18;100.00
25722;BME280;13578;53.450;15.496;2024-01-30T03:13:46;101094.78;;;0.23;100.00
25722;BME280;13578;53.450;15.496;2024-01-30T03:16:47;101084.69;;;0.31;100.00
25722;BME280;13578;53.450;15.496;2024-01-30T03:19:47;101084.16;;;0.17;100.00
25722;BME280;13578;53.450;15.496;2024-01-30T03:22:48;101081.06;;;-0.03;100.00
25722;BME280;13578;53.450;15.496;2024-01-30T03:25:49;101078.34;;;-0.01;100.00
25722;BME280;13578;53.450;15.496;2024-01-30T03:28:49;101073.16;;;-0.10;100.00
25722;BME280;13578;53.450;15.496;2024-01-30T03:31:50;101068.91;;;-0.19;100.00
25722;BME280;13578;53.450;15.496;2024-01-30T03:34:50;101070.63;;;-0.17;100.00
25722;BME280;13578;53.450;15.496;2024-01-30T03:37:51;101078.63;;;-0.13;100.00
25722;BME280;13578;53.450;15.496;2024-01-30T03:40:52;101074.94;;;-0.11;100.00
25722;BME280;13578;53.450;15.496;2024-01-30T03:43:52;101069.88;;;-0.23;100.00
25722;BME280;13578;53.450;15.496;2024-01-30T03:46:53;101064.44;;;-0.22;100.00
25722;BME280;13578;53.450;15.496;2024-01-30T03:49:53;101069.66;;;-0.14;100.00
25722;BME280;13578;53.450;15.496;2024-01-30T03:52:54;101069.59;;;-0.12;100.00
25722;BME280;13578;53.450;15.496;2024-01-30T03:55:54;101079.41;;;-0.08;100.00
25722;BME280;13578;53.450;15.496;2024-01-30T03:58:55;101073.75;;;0.01;100.00
25722;BME280;13578;53.450;15.496;2024-01-30T04:01:57;101070.34;;;-0.06;100.00
25722;BME280;13578;53.450;15.496;2024-01-30T04:04:57;101064.03;;;-0.05;100.00
25722;BME280;13578;53.450;15.496;2024-01-30T04:07:59;101073.75;;;0.01;100.00
25722;BME280;13578;53.450;15.496;2024-01-30T04:11:06;101061.50;;;-0.12;100.00
25722;BME280;13578;53.450;15.496;2024-01-30T04:14:07;101058.88;;;-0.14;100.00
25722;BME280;13578;53.450;15.496;2024-01-30T04:17:08;101060.59;;;-0.11;100.00
25722;BME280;13578;53.450;15.496;2024-01-30T04:20:13;101064.31;;;-0.17;100.00
25722;BME280;13578;53.450;15.496;2024-01-30T04:23:14;101065.25;;;-0.18;100.00
25722;BME280;13578;53.450;15.496;2024-01-30T04:26:15;101063.59;;;-0.24;100.00
25722;BME280;13578;53.450;15.496;2024-01-30T04:29:15;101061.84;;;-0.25;100.00
25722;BME280;13578;53.450;15.496;2024-01-30T04:32:16;101061.91;;;-0.28;100.00
25722;BME280;13578;53.450;15.496;2024-01-30T04:35:17;101068.16;;;-0.26;100.00
25722;BME280;13578;53.450;15.496;2024-01-30T04:38:18;101064.47;;;-0.23;100.00
25722;BME280;13578;53.450;15.496;2024-01-30T04:41:18;101063.84;;;-0.33;100.00
25722;BME280;13578;53.450;15.496;2024-01-30T04:44:19;101060.97;;;-0.27;100.00
25722;BME280;13578;53.450;15.496;2024-01-30T04:47:19;101067.88;;;-0.15;100.00
25722;BME280;13578;53.450;15.496;2024-01-30T04:50:20;101070.56;;;-0.15;100.00
25722;BME280;13578;53.450;15.496;2024-01-30T04:53:20;101068.63;;;-0.08;100.00
25722;BME280;13578;53.450;15.496;2024-01-30T04:56:21;101066.97;;;-0.14;100.00
25722;BME280;13578;53.450;15.496;2024-01-30T04:59:21;101072.47;;;-0.19;100.00
25722;BME280;13578;53.450;15.496;2024-01-30T05:02:22;101067.81;;;-0.12;100.00
25722;BME280;13578;53.450;15.496;2024-01-30T05:05:23;101066.91;;;-0.12;100.00
25722;BME280;13578;53.450;15.496;2024-01-30T05:08:23;101073.88;;;-0.04;100.00
25722;BME280;13578;53.450;15.496;2024-01-30T05:11:24;101075.66;;;-0.03;100.00
25722;BME280;13578;53.450;15.496;2024-01-30T05:14:24;101074.66;;;0.02;100.00
25722;BME280;13578;53.450;15.496;2024-01-30T05:17:25;101082.66;;;0.06;100.00
25722;BME280;13578;53.450;15.496;2024-01-30T05:20:26;101070.13;;;0.04;100.00
25722;BME280;13578;53.450;15.496;2024-01-30T05:23:28;101076.28;;;0.09;100.00
25722;BME280;13578;53.450;15.496;2024-01-30T05:26:29;101075.88;;;0.23;100.00
25722;BME280;13578;53.450;15.496;2024-01-30T05:29:30;101074.72;;;0.33;100.00
25722;BME280;13578;53.450;15.496;2024-01-30T05:32:31;101078.28;;;0.35;100.00
25722;BME280;13578;53.450;15.496;2024-01-30T05:35:31;101071.97;;;0.35;100.00
25722;BME280;13578;53.450;15.496;2024-01-30T05:38:32;101084.47;;;0.39;100.00
25722;BME280;13578;53.450;15.496;2024-01-30T05:41:32;101082.41;;;0.49;100.00
25722;BME280;13578;53.450;15.496;2024-01-30T05:44:33;101088.66;;;0.51;100.00
25722;BME280;13578;53.450;15.496;2024-01-30T05:47:34;101072.75;;;0.40;100.00
25722;BME280;13578;53.450;15.496;2024-01-30T05:50:35;101077.94;;;0.47;100.00
25722;BME280;13578;53.450;15.496;2024-01-30T05:53:35;101075.22;;;0.47;100.00
25722;BME280;13578;53.450;15.496;2024-01-30T05:56:36;101071.69;;;0.45;100.00
25722;BME280;13578;53.450;15.496;2024-01-30T05:59:37;101077.06;;;0.45;100.00
25722;BME280;13578;53.450;15.496;2024-01-30T06:02:37;101071.00;;;0.37;100.00
25722;BME280;13578;53.450;15.496;2024-01-30T06:05:38;101066.50;;;0.38;100.00
25722;BME280;13578;53.450;15.496;2024-01-30T06:08:38;101065.59;;;0.37;100.00
25722;BME280;13578;53.450;15.496;2024-01-30T06:11:39;101063.84;;;0.36;100.00
25722;BME280;13578;53.450;15.496;2024-01-30T06:14:39;101074.47;;;0.42;100.00
25722;BME280;13578;53.450;15.496;2024-01-30T06:17:42;101078.91;;;0.45;100.00
25722;BME280;13578;53.450;15.496;2024-01-30T06:20:43;101068.81;;;0.52;100.00
25722;BME280;13578;53.450;15.496;2024-01-30T06:23:43;101071.34;;;0.58;100.00
25722;BME280;13578;53.450;15.496;2024-01-30T06:26:44;101082.09;;;0.59;100.00
25722;BME280;13578;53.450;15.496;2024-01-30T06:29:45;101075.84;;;0.57;100.00
25722;BME280;13578;53.450;15.496;2024-01-30T06:32:46;101066.03;;;0.55;100.00
25722;BME280;13578;53.450;15.496;2024-01-30T06:35:46;101065.09;;;0.56;100.00
25722;BME280;13578;53.450;15.496;2024-01-30T06:38:47;101062.78;;;0.42;100.00
25722;BME280;13578;53.450;15.496;2024-01-30T06:41:48;101064.56;;;0.43;100.00
25722;BME280;13578;53.450;15.496;2024-01-30T06:44:48;101069.41;;;0.30;100.00
25722;BME280;13578;53.450;15.496;2024-01-30T06:47:49;101060.75;;;0.17;100.00
25722;BME280;13578;53.450;15.496;2024-01-30T06:50:49;101064.34;;;0.18;100.00
25722;BME280;13578;53.450;15.496;2024-01-30T06:53:51;101067.03;;;0.18;100.00
25722;BME280;13578;53.450;15.496;2024-01-30T06:56:51;101058.94;;;0.18;100.00
25722;BME280;13578;53.450;15.496;2024-01-30T06:59:52;101059.84;;;0.17;100.00
25722;BME280;13578;53.450;15.496;2024-01-30T07:02:52;101063.47;;;0.17;100.00
25722;BME280;13578;53.450;15.496;2024-01-30T07:05:53;101062.72;;;0.10;100.00
25722;BME280;13578;53.450;15.496;2024-01-30T07:08:54;101061.88;;;0.08;100.00
25722;BME280;13578;53.450;15.496;2024-01-30T07:11:54;101054.47;;;0.17;100.00
25722;BME280;13578;53.450;15.496;2024-01-30T07:14:55;101050.75;;;0.21;100.00
25722;BME280;13578;53.450;15.496;2024-01-30T07:17:57;101051.06;;;0.08;100.00
25722;BME280;13578;53.450;15.496;2024-01-30T07:20:57;101051.81;;;0.15;100.00
25722;BME280;13578;53.450;15.496;2024-01-30T07:23:58;101054.75;;;0.06;100.00
25722;BME280;13578;53.450;15.496;2024-01-30T07:26:58;101053.81;;;0.07;100.00
25722;BME280;13578;53.450;15.496;2024-01-30T07:29:59;101054.50;;;0.15;100.00
25722;BME280;13578;53.450;15.496;2024-01-30T07:32:59;101057.78;;;0.28;100.00
25722;BME280;13578;53.450;15.496;2024-01-30T07:36:00;101057.88;;;0.23;100.00
25722;BME280;13578;53.450;15.496;2024-01-30T07:39:01;101057.78;;;0.28;100.00
25722;BME280;13578;53.450;15.496;2024-01-30T07:42:01;101055.59;;;0.41;100.00
25722;BME280;13578;53.450;15.496;2024-01-30T07:45:02;101057.13;;;0.51;100.00
25722;BME280;13578;53.450;15.496;2024-01-30T07:48:03;101058.91;;;0.52;100.00
25722;BME280;13578;53.450;15.496;2024-01-30T07:51:03;101067.44;;;0.68;100.00
25722;BME280;13578;53.450;15.496;2024-01-30T07:54:04;101064.66;;;0.71;100.00
25722;BME280;13578;53.450;15.496;2024-01-30T07:57:05;101074.84;;;0.93;100.00
25722;BME280;13578;53.450;15.496;2024-01-30T08:00:06;101070.03;;;1.03;100.00
25722;BME280;13578;53.450;15.496;2024-01-30T08:03:07;101079.88;;;1.05;100.00
25722;BME280;13578;53.450;15.496;2024-01-30T08:06:08;101068.97;;;1.08;100.00
25722;BME280;13578;53.450;15.496;2024-01-30T08:09:10;101065.97;;;1.18;100.00
25722;BME280;13578;53.450;15.496;2024-01-30T08:12:11;101063.09;;;1.24;100.00
25722;BME280;13578;53.450;15.496;2024-01-30T08:15:13;101070.25;;;1.25;100.00
25722;BME280;13578;53.450;15.496;2024-01-30T08:18:13;101066.94;;;1.45;100.00
25722;BME280;13578;53.450;15.496;2024-01-30T08:21:14;101071.25;;;1.51;100.00
25722;BME280;13578;53.450;15.496;2024-01-30T08:24:14;101066.94;;;1.45;100.00
25722;BME280;13578;53.450;15.496;2024-01-30T08:27:15;101070.03;;;1.61;100.00
25722;BME280;13578;53.450;15.496;2024-01-30T08:30:16;101074.91;;;1.50;100.00
25722;BME280;13578;53.450;15.496;2024-01-30T08:33:16;101069.19;;;1.59;100.00
25722;BME280;13578;53.450;15.496;2024-01-30T08:36:17;101074.25;;;1.70;100.00
25722;BME280;13578;53.450;15.496;2024-01-30T08:39:18;101068.06;;;1.66;100.00
25722;BME280;13578;53.450;15.496;2024-01-30T08:42:18;101074.56;;;1.87;100.00
25722;BME280;13578;53.450;15.496;2024-01-30T08:45:22;101074.38;;;1.94;100.00
25722;BME280;13578;53.450;15.496;2024-01-30T08:48:23;101080.38;;;2.03;100.00
25722;BME280;13578;53.450;15.496;2024-01-30T08:51:24;101077.66;;;2.03;100.00
25722;BME280;13578;53.450;15.496;2024-01-30T08:54:24;101082.72;;;2.14;100.00
25722;BME280;13578;53.450;15.496;2024-01-30T08:57:25;101079.88;;;2.17;100.00
25722;BME280;13578;53.450;15.496;2024-01-30T09:00:29;101072.44;;;2.24;100.00
25722;BME280;13578;53.450;15.496;2024-01-30T09:03:29;101066.47;;;2.40;100.00
25722;BME280;13578;53.450;15.496;2024-01-30T09:06:30;101070.81;;;2.44;100.00
25722;BME280;13578;53.450;15.496;2024-01-30T09:09:30;101073.16;;;2.54;100.00
25722;BME280;13578;53.450;15.496;2024-01-30T09:12:31;101070.41;;;2.56;100.00
25722;BME280;13578;53.450;15.496;2024-01-30T09:15:31;101067.47;;;2.62;100.00
25722;BME280;13578;53.450;15.496;2024-01-30T09:18:32;101069.00;;;2.69;100.00
25722;BME280;13578;53.450;15.496;2024-01-30T09:21:33;101076.44;;;2.88;100.00
25722;BME280;13578;53.450;15.496;2024-01-30T09:24:33;101072.38;;;3.00;100.00
25722;BME280;13578;53.450;15.496;2024-01-30T09:27:34;101073.97;;;3.06;100.00
25722;BME280;13578;53.450;15.496;2024-01-30T09:30:35;101066.47;;;3.12;100.00
25722;BME280;13578;53.450;15.496;2024-01-30T09:33:36;101070.34;;;3.29;100.00
25722;BME280;13578;53.450;15.496;2024-01-30T09:36:36;101060.97;;;3.38;100.00
25722;BME280;13578;53.450;15.496;2024-01-30T09:39:37;101048.22;;;3.40;100.00
25722;BME280;13578;53.450;15.496;2024-01-30T09:42:37;101052.66;;;3.64;100.00
25722;BME280;13578;53.450;15.496;2024-01-30T09:45:39;101055.13;;;3.71;100.00
25722;BME280;13578;53.450;15.496;2024-01-30T09:48:42;101050.84;;;3.86;100.00
25722;BME280;13578;53.450;15.496;2024-01-30T09:51:44;101055.22;;;3.90;100.00
25722;BME280;13578;53.450;15.496;2024-01-30T09:54:47;101050.47;;;3.95;100.00
25722;BME280;13578;53.450;15.496;2024-01-30T09:57:49;101047.50;;;4.01;100.00
25722;BME280;13578;53.450;15.496;2024-01-30T10:00:50;101053.56;;;4.08;100.00
25722;BME280;13578;53.450;15.496;2024-01-30T10:03:51;101051.25;;;4.19;100.00
25722;BME280;13578;53.450;15.496;2024-01-30T10:06:54;101046.63;;;4.21;100.00
25722;BME280;13578;53.450;15.496;2024-01-30T10:09:55;101046.97;;;4.34;100.00
25722;BME280;13578;53.450;15.496;2024-01-30T10:12:56;101046.63;;;4.42;100.00
25722;BME280;13578;53.450;15.496;2024-01-30T10:15:57;101041.47;;;4.36;100.00
25722;BME280;13578;53.450;15.496;2024-01-30T10:18:58;101038.94;;;4.52;100.00
25722;BME280;13578;53.450;15.496;2024-01-30T10:22:02;101035.88;;;4.59;100.00
25722;BME280;13578;53.450;15.496;2024-01-30T10:25:03;101036.00;;;4.77;100.00
25722;BME280;13578;53.450;15.496;2024-01-30T10:28:04;101032.78;;;4.88;100.00
25722;BME280;13578;53.450;15.496;2024-01-30T10:31:05;101023.88;;;5.03;100.00
25722;BME280;13578;53.450;15.496;2024-01-30T10:34:05;101025.41;;;4.90;100.00
25722;BME280;13578;53.450;15.496;2024-01-30T10:37:10;101025.81;;;5.01;100.00
25722;BME280;13578;53.450;15.496;2024-01-30T10:40:20;101007.84;;;5.16;100.00
25722;BME280;13578;53.450;15.496;2024-01-30T10:47:12;100998.94;;;5.32;100.00
25722;BME280;13578;53.450;15.496;2024-01-30T10:50:16;100997.59;;;5.40;100.00
25722;BME280;13578;53.450;15.496;2024-01-30T10:53:17;100995.78;;;5.59;100.00
25722;BME280;13578;53.450;15.496;2024-01-30T10:56:20;100985.88;;;5.57;100.00
25722;BME280;13578;53.450;15.496;2024-01-30T10:59:23;100986.66;;;5.60;100.00
25722;BME280;13578;53.450;15.496;2024-01-30T11:02:25;100978.34;;;5.63;100.00
25722;BME280;13578;53.450;15.496;2024-01-30T11:05:27;100983.72;;;5.64;100.00
25722;BME280;13578;53.450;15.496;2024-01-30T11:08:28;100982.13;;;5.78;100.00
25722;BME280;13578;53.450;15.496;2024-01-30T11:11:32;100968.59;;;5.76;100.00
25722;BME280;13578;53.450;15.496;2024-01-30T11:14:32;100978.69;;;5.74;100.00
25722;BME280;13578;53.450;15.496;2024-01-30T11:20:48;100970.91;;;5.84;100.00
25722;BME280;13578;53.450;15.496;2024-01-30T11:23:49;100973.91;;;5.79;100.00
25722;BME280;13578;53.450;15.496;2024-01-30T11:26:56;100956.75;;;5.95;100.00
25722;BME280;13578;53.450;15.496;2024-01-30T11:30:02;100964.75;;;5.98;100.00
25722;BME280;13578;53.450;15.496;2024-01-30T11:36:11;100939.94;;;5.86;100.00
25722;BME280;13578;53.450;15.496;2024-01-30T11:39:16;100939.44;;;5.78;100.00
25722;BME280;13578;53.450;15.496;2024-01-30T11:42:17;100943.19;;;5.93;100.00
25722;BME280;13578;53.450;15.496;2024-01-30T11:45:18;100942.25;;;6.12;100.00
25722;BME280;13578;53.450;15.496;2024-01-30T11:48:19;100940.59;;;6.09;100.00
25722;BME280;13578;53.450;15.496;2024-01-30T11:51:20;100941.13;;;6.16;100.00
25722;BME280;13578;53.450;15.496;2024-01-30T11:54:20;100938.00;;;6.06;100.00
25722;BME280;13578;53.450;15.496;2024-01-30T11:57:21;100942.66;;;6.22;100.00
25722;BME280;13578;53.450;15.496;2024-01-30T12:00:21;100927.97;;;6.24;100.00
25722;BME280;13578;53.450;15.496;2024-01-30T12:12:00;100911.13;;;6.33;100.00
25722;BME280;13578;53.450;15.496;2024-01-30T12:15:01;100905.66;;;6.33;100.00
25722;BME280;13578;53.450;15.496;2024-01-30T12:18:06;100902.69;;;6.38;100.00
25722;BME280;13578;53.450;15.496;2024-01-30T12:21:07;100901.53;;;6.42;100.00
25722;BME280;13578;53.450;15.496;2024-01-30T12:24:09;100909.38;;;6.48;100.00
25722;BME280;13578;53.450;15.496;2024-01-30T12:27:11;100907.00;;;6.42;100.00
25722;BME280;13578;53.450;15.496;2024-01-30T12:30:15;100894.16;;;6.44;100.00
25722;BME280;13578;53.450;15.496;2024-01-30T12:33:17;100904.16;;;6.28;100.00
25722;BME280;13578;53.450;15.496;2024-01-30T12:36:18;100899.63;;;6.44;100.00
25722;BME280;13578;53.450;15.496;2024-01-30T12:39:19;100890.06;;;6.35;100.00
25722;BME280;13578;53.450;15.496;2024-01-30T12:42:20;100887.78;;;6.28;100.00
25722;BME280;13578;53.450;15.496;2024-01-30T12:45:22;100889.00;;;6.22;100.00
25722;BME280;13578;53.450;15.496;2024-01-30T12:48:22;100884.44;;;6.23;100.00
25722;BME280;13578;53.450;15.496;2024-01-30T12:51:23;100891.56;;;6.25;100.00
25722;BME280;13578;53.450;15.496;2024-01-30T12:54:24;100885.66;;;6.17;100.00
25722;BME280;13578;53.450;15.496;2024-01-30T12:57:24;100882.81;;;6.18;100.00
25722;BME280;13578;53.450;15.496;2024-01-30T13:00:25;100889.19;;;6.01;100.00
25722;BME280;13578;53.450;15.496;2024-01-30T13:03:26;100886.69;;;6.14;100.00
25722;BME280;13578;53.450;15.496;2024-01-30T13:06:27;100888.00;;;6.07;100.00
25722;BME280;13578;53.450;15.496;2024-01-30T13:09:29;100888.00;;;6.07;100.00
25722;BME280;13578;53.450;15.496;2024-01-30T13:12:31;100891.25;;;6.14;100.00
25722;BME280;13578;53.450;15.496;2024-01-30T13:15:33;100892.63;;;6.23;100.00
25722;BME280;13578;53.450;15.496;2024-01-30T13:18:34;100891.31;;;6.30;100.00
25722;BME280;13578;53.450;15.496;2024-01-30T13:21:35;100890.34;;;6.31;100.00
25722;BME280;13578;53.450;15.496;2024-01-30T13:24:35;100885.28;;;6.41;100.00
25722;BME280;13578;53.450;15.496;2024-01-30T13:27:36;100888.94;;;6.24;100.00
25722;BME280;13578;53.450;15.496;2024-01-30T13:30:37;100891.38;;;6.28;100.00
25722;BME280;13578;53.450;15.496;2024-01-30T13:33:38;100878.84;;;6.42;100.00
25722;BME280;13578;53.450;15.496;2024-01-30T13:36:39;100881.28;;;6.46;100.00
25722;BME280;13578;53.450;15.496;2024-01-30T13:39:39;100868.31;;;6.51;100.00
25722;BME280;13578;53.450;15.496;2024-01-30T13:42:40;100866.19;;;6.57;100.00
25722;BME280;13578;53.450;15.496;2024-01-30T13:45:40;100867.03;;;6.41;100.00
25722;BME280;13578;53.450;15.496;2024-01-30T13:48:42;100869.16;;;6.36;100.00
25722;BME280;13578;53.450;15.496;2024-01-30T13:51:43;100866.34;;;6.38;100.00
25722;BME280;13578;53.450;15.496;2024-01-30T13:54:44;100854.94;;;6.47;100.00
25722;BME280;13578;53.450;15.496;2024-01-30T13:57:45;100846.03;;;6.43;100.00
25722;BME280;13578;53.450;15.496;2024-01-30T14:00:45;100858.25;;;6.36;100.00
25722;BME280;13578;53.450;15.496;2024-01-30T14:03:46;100854.56;;;6.37;100.00
25722;BME280;13578;53.450;15.496;2024-01-30T14:06:47;100854.69;;;6.18;100.00
25722;BME280;13578;53.450;15.496;2024-01-30T14:09:48;100857.28;;;6.37;100.00
25722;BME280;13578;53.450;15.496;2024-01-30T14:12:49;100852.19;;;6.31;100.00
25722;BME280;13578;53.450;15.496;2024-01-30T14:15:53;100852.19;;;6.31;100.00
25722;BME280;13578;53.450;15.496;2024-01-30T14:18:54;100846.88;;;6.28;100.00
25722;BME280;13578;53.450;15.496;2024-01-30T14:21:55;100840.38;;;6.30;100.00
25722;BME280;13578;53.450;15.496;2024-01-30T14:24:55;100844.88;;;6.31;100.00
25722;BME280;13578;53.450;15.496;2024-01-30T14:27:56;100849.63;;;6.28;100.00
25722;BME280;13578;53.450;15.496;2024-01-30T14:30:57;100844.97;;;6.30;100.00
25722;BME280;13578;53.450;15.496;2024-01-30T14:33:58;100852.59;;;6.23;100.00
25722;BME280;13578;53.450;15.496;2024-01-30T14:36:59;100850.66;;;6.09;100.00
25722;BME280;13578;53.450;15.496;2024-01-30T14:40:00;100843.06;;;5.97;100.00
25722;BME280;13578;53.450;15.496;2024-01-30T14:43:00;100847.56;;;5.98;100.00
25722;BME280;13578;53.450;15.496;2024-01-30T14:46:01;100839.03;;;6.06;100.00
25722;BME280;13578;53.450;15.496;2024-01-30T14:49:03;100846.06;;;5.92;100.00
25722;BME280;13578;53.450;15.496;2024-01-30T14:52:06;100843.69;;;6.03;100.00
25722;BME280;13578;53.450;15.496;2024-01-30T14:55:06;100837.50;;;6.00;100.00
25722;BME280;13578;53.450;15.496;2024-01-30T14:58:07;100830.13;;;5.84;100.00
25722;BME280;13578;53.450;15.496;2024-01-30T15:01:08;100836.75;;;5.96;100.00
25722;BME280;13578;53.450;15.496;2024-01-30T15:04:08;100835.16;;;5.92;100.00
25722;BME280;13578;53.450;15.496;2024-01-30T15:07:09;100838.13;;;5.87;100.00
25722;BME280;13578;53.450;15.496;2024-01-30T15:10:10;100841.38;;;5.78;100.00
25722;BME280;13578;53.450;15.496;2024-01-30T15:13:11;100843.13;;;5.79;100.00
25722;BME280;13578;53.450;15.496;2024-01-30T15:16:12;100840.88;;;5.70;100.00
25722;BME280;13578;53.450;15.496;2024-01-30T15:19:13;100847.16;;;5.72;100.00
25722;BME280;13578;53.450;15.496;2024-01-30T15:22:14;100850.50;;;5.60;100.00
25722;BME280;13578;53.450;15.496;2024-01-30T15:25:14;100844.28;;;5.57;100.00
25722;BME280;13578;53.450;15.496;2024-01-30T15:28:15;100846.34;;;5.52;100.00
25722;BME280;13578;53.450;15.496;2024-01-30T15:31:17;100848.28;;;5.50;100.00
25722;BME280;13578;53.450;15.496;2024-01-30T15:34:17;100846.91;;;5.59;100.00
25722;BME280;13578;53.450;15.496;2024-01-30T15:37:18;100842.13;;;5.47;100.00
25722;BME280;13578;53.450;15.496;2024-01-30T15:40:19;100858.09;;;5.35;100.00
25722;BME280;13578;53.450;15.496;2024-01-30T15:43:20;100858.34;;;5.31;100.00
25722;BME280;13578;53.450;15.496;2024-01-30T15:46:21;100857.44;;;5.13;100.00
25722;BME280;13578;53.450;15.496;2024-01-30T15:49:22;100857.84;;;5.05;100.00